createdAt,value
2022-09-07T00:00:03.607Z,33.28
2022-09-07T00:02:34.052Z,29.98
2022-09-07T00:05:04.393Z,30.92
2022-09-07T00:07:34.671Z,32.67
2022-09-07T00:10:04.983Z,32.20
2022-09-07T00:12:35.175Z,31.75
2022-09-07T00:15:09.749Z,29.63
2022-09-07T00:17:40.456Z,35.47
2022-09-07T00:20:11.501Z,26.35
2022-09-07T00:22:41.773Z,29.85
2022-09-07T00:25:12.175Z,30.23
2022-09-07T00:27:46.482Z,29.77
2022-09-07T00:30:17.114Z,28.67
2022-09-07T00:32:47.972Z,25.13
2022-09-07T00:35:18.521Z,25.65
2022-09-07T00:37:48.696Z,26.73
2022-09-07T00:40:18.896Z,26.90
2022-09-07T00:42:49.917Z,26.60
2022-09-07T00:45:21.936Z,27.45
2022-09-07T00:48:01.288Z,27.30
2022-09-07T00:50:38.030Z,28.90
2022-09-07T00:53:09.952Z,25.10
2022-09-07T00:55:41.239Z,27.40
2022-09-07T00:58:12.006Z,27.35
2022-09-07T01:00:46.488Z,27.45
2022-09-07T01:03:21.491Z,25.50
2022-09-07T01:05:58.449Z,25.33
2022-09-07T01:08:29.254Z,26.33
2022-09-07T01:11:01.304Z,26.08
2022-09-07T01:13:32.851Z,25.83
2022-09-07T01:16:17.680Z,26.70
2022-09-07T01:19:04.874Z,26.13
2022-09-07T01:21:54.895Z,27.30
2022-09-07T01:24:34.783Z,27.23
2022-09-07T01:27:24.886Z,25.98
2022-09-07T01:30:14.881Z,25.27
2022-09-07T01:32:52.509Z,26.15
2022-09-07T01:35:32.062Z,24.98
2022-09-07T01:38:08.658Z,25.90
2022-09-07T01:40:58.900Z,23.98
2022-09-07T01:43:49.770Z,23.85
2022-09-07T01:46:30.746Z,24.35
2022-09-07T01:49:08.541Z,25.58
2022-09-07T01:51:42.008Z,26.25
2022-09-07T01:54:17.684Z,25.77
2022-09-07T01:56:49.791Z,23.88
2022-09-07T01:59:23.350Z,23.77
2022-09-07T02:01:59.345Z,24.42
2022-09-07T02:04:34.748Z,25.00
2022-09-07T02:07:25.063Z,26.20
2022-09-07T02:10:15.325Z,23.45
2022-09-07T02:12:51.641Z,23.48
2022-09-07T02:15:25.760Z,23.25
2022-09-07T02:17:58.558Z,22.77
2022-09-07T02:20:32.894Z,23.95
2022-09-07T02:23:05.365Z,25.33
2022-09-07T02:25:41.058Z,22.73
2022-09-07T02:28:14.593Z,22.83
2022-09-07T02:30:45.162Z,21.60
2022-09-07T02:33:19.390Z,24.67
2022-09-07T02:35:54.407Z,22.80
2022-09-07T02:38:25.729Z,22.95
2022-09-07T02:40:58.080Z,22.75
2022-09-07T02:43:29.367Z,23.27
2022-09-07T02:46:22.222Z,22.77
2022-09-07T02:49:06.181Z,23.70
2022-09-07T02:51:56.151Z,21.63
2022-09-07T02:54:35.621Z,20.85
2022-09-07T02:57:25.717Z,22.05
2022-09-07T03:00:03.798Z,20.52
2022-09-07T03:02:53.981Z,22.38
2022-09-07T03:05:31.842Z,20.58
2022-09-07T03:08:08.863Z,20.75
2022-09-07T03:10:41.567Z,20.67
2022-09-07T03:13:12.972Z,21.58
2022-09-07T03:15:44.078Z,21.20
2022-09-07T03:18:14.825Z,20.77
2022-09-07T03:20:45.612Z,22.48
2022-09-07T03:23:16.558Z,22.15
2022-09-07T03:25:49.418Z,21.20
2022-09-07T03:28:19.857Z,21.90
2022-09-07T03:30:50.364Z,21.77
2022-09-07T03:33:21.253Z,22.02
2022-09-07T03:36:05.097Z,21.33
2022-09-07T03:38:35.555Z,22.00
2022-09-07T03:41:07.641Z,22.50
2022-09-07T03:43:41.435Z,22.75
2022-09-07T03:46:12.493Z,22.20
2022-09-07T03:48:43.388Z,21.45
2022-09-07T03:51:18.121Z,23.02
2022-09-07T03:53:49.448Z,23.75
2022-09-07T03:56:25.994Z,23.38
2022-09-07T03:58:58.312Z,21.95
2022-09-07T04:01:29.488Z,22.45
2022-09-07T04:04:02.439Z,23.08
2022-09-07T04:06:33.170Z,23.08
2022-09-07T04:09:06.781Z,22.38
2022-09-07T04:11:37.268Z,21.88
2022-09-07T04:14:07.799Z,21.83
2022-09-07T04:16:38.548Z,23.00
2022-09-07T04:19:09.085Z,25.88
2022-09-07T04:21:39.220Z,22.35
2022-09-07T04:24:09.359Z,22.23
2022-09-07T04:26:39.488Z,25.02
2022-09-07T04:29:10.208Z,22.15
2022-09-07T04:31:41.056Z,23.17
2022-09-07T04:34:13.142Z,22.83
2022-09-07T04:36:43.733Z,22.45
2022-09-07T04:39:14.285Z,23.35
2022-09-07T04:41:45.449Z,21.58
2022-09-07T04:44:17.103Z,23.25
2022-09-07T04:46:47.707Z,22.67
2022-09-07T04:49:18.062Z,22.23
2022-09-07T04:51:48.726Z,22.02
2022-09-07T04:54:19.159Z,22.17
2022-09-07T04:56:49.343Z,22.40
2022-09-07T04:59:19.608Z,23.13
2022-09-07T05:01:50.109Z,22.00
2022-09-07T05:04:20.832Z,21.15
2022-09-07T05:06:51.304Z,21.50
2022-09-07T05:09:21.791Z,22.33
2022-09-07T05:11:52.415Z,22.27
2022-09-07T05:14:22.473Z,21.65
2022-09-07T05:16:52.413Z,21.80
2022-09-07T05:19:22.718Z,22.23
2022-09-07T05:21:53.123Z,21.17
2022-09-07T05:24:23.814Z,22.00
2022-09-07T05:26:54.251Z,21.90
2022-09-07T05:32:15.262Z,21.92
2022-09-07T05:34:46.754Z,22.05
2022-09-07T05:37:17.843Z,21.65
2022-09-07T05:39:49.705Z,22.65
2022-09-07T05:42:20.155Z,21.85
2022-09-07T05:44:50.704Z,21.58
2022-09-07T05:47:20.585Z,20.35
2022-09-07T05:49:52.925Z,20.50
2022-09-07T05:52:25.374Z,31.27
2022-09-07T05:55:07.524Z,32.17
2022-09-07T05:57:46.207Z,21.08
2022-09-07T06:00:16.507Z,21.63
2022-09-07T06:02:46.775Z,22.77
2022-09-07T06:05:17.490Z,20.88
2022-09-07T06:07:50.167Z,23.25
2022-09-07T06:13:11.259Z,19.70
2022-09-07T06:15:41.487Z,20.92
2022-09-07T06:18:12.323Z,22.58
2022-09-07T06:20:42.918Z,21.73
2022-09-07T06:23:12.983Z,22.05
2022-09-07T06:25:50.230Z,20.90
2022-09-07T06:28:21.737Z,21.17
2022-09-07T06:30:52.180Z,21.20
2022-09-07T06:33:22.242Z,20.98
2022-09-07T06:36:00.295Z,21.48
2022-09-07T06:38:34.223Z,19.73
2022-09-07T06:43:57.109Z,20.65
2022-09-07T06:49:17.853Z,22.90
2022-09-07T06:51:47.990Z,21.83
2022-09-07T06:57:10.344Z,20.83
2022-09-07T06:59:41.128Z,20.92
2022-09-07T07:02:12.558Z,20.27
2022-09-07T07:04:43.350Z,20.23
2022-09-07T07:07:15.193Z,20.30
2022-09-07T07:09:45.630Z,21.00
2022-09-07T07:14:51.656Z,20.98
2022-09-07T07:17:21.865Z,21.75
2022-09-07T07:19:52.304Z,21.50
2022-09-07T07:22:46.102Z,21.60
2022-09-07T07:25:13.370Z,21.80
2022-09-07T07:27:43.905Z,22.25
2022-09-07T07:30:16.299Z,22.20
2022-09-07T07:32:47.547Z,22.42
2022-09-07T07:35:17.992Z,22.45
2022-09-07T07:37:49.702Z,21.40
2022-09-07T07:40:24.437Z,21.27
2022-09-07T07:42:57.459Z,23.88
2022-09-07T07:48:18.691Z,23.88
2022-09-07T07:51:02.642Z,24.15
2022-09-07T07:53:42.331Z,24.17
2022-09-07T07:56:14.272Z,24.23
2022-09-07T07:58:46.717Z,23.85
2022-09-07T08:01:19.100Z,24.90
2022-09-07T08:03:48.934Z,25.00
2022-09-07T08:06:20.076Z,24.55
2022-09-07T08:08:49.990Z,23.90
2022-09-07T08:11:20.456Z,24.20
2022-09-07T08:13:50.842Z,24.02
2022-09-07T08:16:21.170Z,25.45
2022-09-07T08:18:50.957Z,23.75
2022-09-07T08:21:20.559Z,22.42
2022-09-07T08:23:50.014Z,23.50
2022-09-07T08:26:19.617Z,21.58
2022-09-07T08:28:49.540Z,22.98
2022-09-07T08:31:19.766Z,23.17
2022-09-07T08:33:50.001Z,24.00
2022-09-07T08:36:21.241Z,23.38
2022-09-07T08:38:51.398Z,23.17
2022-09-07T08:41:41.680Z,22.55
2022-09-07T08:44:31.830Z,23.33
2022-09-07T08:47:04.250Z,25.92
2022-09-07T08:49:54.337Z,23.88
2022-09-07T08:52:28.477Z,25.42
2022-09-07T08:55:06.745Z,24.85
2022-09-07T08:57:38.053Z,23.38
2022-09-07T09:00:17.948Z,23.95
2022-09-07T09:03:28.700Z,24.27
2022-09-07T09:05:49.764Z,23.88
2022-09-07T09:08:39.297Z,24.42
2022-09-07T09:11:15.070Z,23.58
2022-09-07T09:14:04.893Z,23.13
2022-09-07T09:16:58.860Z,23.63
2022-09-07T09:19:41.501Z,23.67
2022-09-07T09:22:17.042Z,24.58
2022-09-07T09:25:00.223Z,24.83
2022-09-07T09:27:35.096Z,26.08
2022-09-07T09:30:23.698Z,25.58
2022-09-07T09:32:55.545Z,25.75
2022-09-07T09:35:33.507Z,25.10
2022-09-07T09:38:07.115Z,25.55
2022-09-07T09:40:39.206Z,24.60
2022-09-07T09:43:30.912Z,24.75
2022-09-07T09:46:13.162Z,25.77
2022-09-07T09:48:43.374Z,25.00
2022-09-07T09:54:09.874Z,25.90
2022-09-07T09:56:45.203Z,26.85
2022-09-07T10:05:33.010Z,27.13
2022-09-07T10:08:03.235Z,25.80
2022-09-07T10:10:35.178Z,26.23
2022-09-07T10:13:05.581Z,27.55
2022-09-07T10:15:40.950Z,27.45
2022-09-07T10:18:20.759Z,27.13
2022-09-07T10:20:56.502Z,28.58
2022-09-07T10:23:27.081Z,29.98
2022-09-07T10:25:57.652Z,30.52
2022-09-07T10:31:31.043Z,30.05
2022-09-07T10:37:19.952Z,30.15
2022-09-07T10:40:16.267Z,31.85
2022-09-07T10:46:14.769Z,29.95
2022-09-07T10:49:10.283Z,28.80
2022-09-07T10:52:00.163Z,29.27
2022-09-07T10:54:43.609Z,30.90
2022-09-07T10:57:36.197Z,31.42
2022-09-07T11:00:27.552Z,31.08
2022-09-07T11:03:25.600Z,29.40
2022-09-07T11:06:05.413Z,30.58
2022-09-07T11:12:04.928Z,29.17
2022-09-07T11:14:44.745Z,30.45
2022-09-07T11:17:26.313Z,29.92
2022-09-07T11:20:17.814Z,30.02
2022-09-07T11:23:05.941Z,31.92
2022-09-07T11:25:42.327Z,31.02
2022-09-07T11:28:32.227Z,33.88
2022-09-07T11:31:05.004Z,37.92
2022-09-07T11:33:37.626Z,35.90
2022-09-07T11:36:13.329Z,37.65
2022-09-07T11:38:55.469Z,36.78
2022-09-07T11:41:38.077Z,35.90
2022-09-07T11:44:20.534Z,34.92
2022-09-07T11:46:53.343Z,43.10
2022-09-07T11:49:28.967Z,55.03
2022-09-07T11:52:08.208Z,44.20
2022-09-07T11:54:50.045Z,48.00
2022-09-07T11:57:40.829Z,48.00
2022-09-07T12:00:34.924Z,48.55
2022-09-07T12:03:25.363Z,45.90
2022-09-07T12:06:18.945Z,50.85
2022-09-07T12:09:12.391Z,52.85
2022-09-07T12:11:56.842Z,57.53
2022-09-07T12:14:38.724Z,57.22
2022-09-07T12:17:20.695Z,54.58
2022-09-07T12:20:07.149Z,52.30
2022-09-07T12:22:46.804Z,50.35
2022-09-07T12:25:20.760Z,46.45
2022-09-07T12:27:51.759Z,43.72
2022-09-07T12:30:42.287Z,45.40
2022-09-07T12:33:36.929Z,42.80
2022-09-07T12:36:33.027Z,44.22
2022-09-07T12:39:23.921Z,42.95
2022-09-07T12:42:37.530Z,43.67
2022-09-07T12:45:28.146Z,41.72
2022-09-07T12:48:07.936Z,43.05
2022-09-07T12:51:06.825Z,40.53
2022-09-07T12:53:51.277Z,38.55
2022-09-07T12:56:47.109Z,37.08
2022-09-07T12:59:32.276Z,37.13
2022-09-07T13:02:15.623Z,38.28
2022-09-07T13:05:06.288Z,35.97
2022-09-07T13:07:59.291Z,37.70
2022-09-07T13:10:47.563Z,38.35
2022-09-07T13:19:56.616Z,38.85
2022-09-07T13:22:49.362Z,40.65
2022-09-07T13:25:44.647Z,43.50
2022-09-07T13:28:40.152Z,45.63
2022-09-07T13:31:41.413Z,45.22
2022-09-07T13:34:32.631Z,41.88
2022-09-07T13:37:11.421Z,43.95
2022-09-07T13:39:52.116Z,40.40
2022-09-07T13:42:29.287Z,40.67
2022-09-07T13:45:03.143Z,39.17
2022-09-07T13:47:55.196Z,42.13
2022-09-07T13:50:41.901Z,43.63
2022-09-07T13:53:39.310Z,43.58
2022-09-07T13:56:30.398Z,49.22
2022-09-07T13:59:01.707Z,48.80
2022-09-07T14:01:40.772Z,47.05
2022-09-07T14:04:35.744Z,49.25
2022-09-07T14:10:18.139Z,43.08
2022-09-07T14:12:54.449Z,41.95
2022-09-07T14:18:42.546Z,42.08
2022-09-07T14:21:24.934Z,43.00
2022-09-07T14:24:08.346Z,45.65
2022-09-07T14:26:39.175Z,46.83
2022-09-07T14:29:26.258Z,43.10
2022-09-07T14:32:05.142Z,42.70
2022-09-07T14:34:45.704Z,45.30
2022-09-07T14:37:21.569Z,59.65
2022-09-07T14:39:57.806Z,48.25
2022-09-07T14:42:32.099Z,47.28
2022-09-07T14:45:24.461Z,44.45
2022-09-07T14:48:01.845Z,43.85
2022-09-07T14:50:41.442Z,42.88
2022-09-07T14:53:37.119Z,43.70
2022-09-07T14:56:12.481Z,43.38
2022-09-07T14:58:42.629Z,44.25
2022-09-07T15:01:38.505Z,40.10
2022-09-07T15:04:22.856Z,38.53
2022-09-07T15:07:01.786Z,38.53
2022-09-07T15:09:52.077Z,39.30
2022-09-07T15:12:38.235Z,39.13
2022-09-07T15:15:37.471Z,41.75
2022-09-07T15:18:29.409Z,40.40
2022-09-07T15:21:02.265Z,43.00
2022-09-07T15:23:33.050Z,41.75
2022-09-07T15:27:02.114Z,45.28
2022-09-07T15:29:11.449Z,40.17
2022-09-07T15:32:03.933Z,42.40
2022-09-07T15:34:36.077Z,42.42
2022-09-07T15:40:02.767Z,44.20
2022-09-07T15:43:01.022Z,43.65
2022-09-07T15:45:33.048Z,40.67
2022-09-07T15:48:14.136Z,41.15
2022-09-07T15:50:46.677Z,40.90
2022-09-07T15:56:11.533Z,40.42
2022-09-07T15:58:46.624Z,40.35
2022-09-07T16:04:10.518Z,39.20
2022-09-07T16:06:48.435Z,40.47
2022-09-07T16:09:22.270Z,41.25
2022-09-07T16:11:55.486Z,39.15
2022-09-07T16:14:26.853Z,39.55
2022-09-07T16:19:57.623Z,40.67
2022-09-07T16:25:27.682Z,41.15
2022-09-07T16:28:00.175Z,41.67
2022-09-07T16:30:31.301Z,42.00
2022-09-07T16:33:04.908Z,43.60
2022-09-07T16:35:36.014Z,43.45
2022-09-07T16:41:00.024Z,43.63
2022-09-07T16:43:32.197Z,44.22
2022-09-07T16:46:08.216Z,42.92
2022-09-07T16:48:39.003Z,42.25
2022-09-07T16:51:09.823Z,44.70
2022-09-07T16:53:47.729Z,44.88
2022-09-07T16:56:24.503Z,43.88
2022-09-07T16:59:01.391Z,65.53
2022-09-07T17:01:38.927Z,95.00
2022-09-07T17:04:18.445Z,44.63
2022-09-07T17:06:48.853Z,42.05
2022-09-07T17:09:19.823Z,45.22
2022-09-07T17:11:53.791Z,42.28
2022-09-07T17:14:26.746Z,45.45
2022-09-07T17:17:01.755Z,42.60
2022-09-07T17:19:32.878Z,44.08
2022-09-07T17:22:04.905Z,72.35
2022-09-07T17:24:38.948Z,66.75
2022-09-07T17:27:09.237Z,66.57
2022-09-07T17:29:41.924Z,44.95
2022-09-07T17:32:29.625Z,59.95
2022-09-07T17:35:01.592Z,58.42
2022-09-07T17:37:32.833Z,60.63
2022-09-07T17:40:05.429Z,43.28
2022-09-07T17:45:32.081Z,42.45
2022-09-07T17:48:02.648Z,42.22
2022-09-07T17:50:37.158Z,42.25
2022-09-07T17:53:07.668Z,40.00
2022-09-07T17:55:37.902Z,40.47
2022-09-07T17:58:09.452Z,39.97
2022-09-07T18:00:39.938Z,40.83
2022-09-07T18:03:15.098Z,38.35
2022-09-07T18:05:46.016Z,38.97
2022-09-07T18:08:17.668Z,39.97
2022-09-07T18:13:47.487Z,42.03
2022-09-07T18:16:24.018Z,41.55
2022-09-07T18:18:55.118Z,40.63
2022-09-07T18:21:32.023Z,41.00
2022-09-07T18:24:06.292Z,40.63
2022-09-07T18:26:37.920Z,40.08
2022-09-07T18:29:25.929Z,40.25
2022-09-07T18:31:59.264Z,40.10
2022-09-07T18:34:31.881Z,39.42
2022-09-07T18:37:04.356Z,38.72
2022-09-07T18:39:36.779Z,38.17
2022-09-07T18:42:10.542Z,38.55
2022-09-07T18:47:34.430Z,32.75
2022-09-07T18:50:04.997Z,32.50
2022-09-07T18:55:26.462Z,32.33
2022-09-07T18:57:56.718Z,31.80
2022-09-07T19:00:27.732Z,32.10
2022-09-07T19:02:58.138Z,32.45
2022-09-07T19:08:20.513Z,32.67
2022-09-07T19:10:51.054Z,33.30
2022-09-07T19:13:22.613Z,34.45
2022-09-07T19:15:53.265Z,34.47
2022-09-07T19:18:23.573Z,32.30
2022-09-07T19:20:54.567Z,34.58
2022-09-07T19:23:25.404Z,34.05
2022-09-07T19:25:56.695Z,32.63
2022-09-07T19:28:27.097Z,29.77
2022-09-07T19:30:57.684Z,30.48
2022-09-07T19:33:28.264Z,31.63
2022-09-07T19:35:58.806Z,30.42
2022-09-07T19:38:29.381Z,32.55
2022-09-07T19:41:00.237Z,30.73
2022-09-07T19:43:38.281Z,30.23
2022-09-07T19:46:08.707Z,28.88
2022-09-07T19:48:40.054Z,30.55
2022-09-07T19:51:12.429Z,29.33
2022-09-07T19:53:44.327Z,29.48
2022-09-07T19:56:16.456Z,28.60
2022-09-07T19:58:48.021Z,27.05
2022-09-07T20:01:20.042Z,26.70
2022-09-07T20:04:21.354Z,26.58
2022-09-07T20:06:52.706Z,26.00
2022-09-07T20:09:22.965Z,25.23
2022-09-07T20:11:53.540Z,26.77
2022-09-07T20:14:25.961Z,25.60
2022-09-07T20:16:57.140Z,25.80
2022-09-07T20:19:28.462Z,24.67
2022-09-07T20:22:01.335Z,24.95
2022-09-07T20:27:19.722Z,24.33
2022-09-07T20:29:52.058Z,25.45
2022-09-07T20:32:22.098Z,26.27
2022-09-07T20:34:52.440Z,24.98
2022-09-07T20:37:23.046Z,25.45
2022-09-07T20:39:53.808Z,24.63
2022-09-07T20:42:24.650Z,23.75
2022-09-07T20:44:55.255Z,24.70
2022-09-07T20:47:25.494Z,24.60
2022-09-07T20:49:55.758Z,26.95
2022-09-07T20:52:26.152Z,26.27
2022-09-07T20:54:56.370Z,28.60
2022-09-07T20:57:26.878Z,26.33
2022-09-07T20:59:57.018Z,27.08
2022-09-07T21:02:27.547Z,26.38
2022-09-07T21:04:58.397Z,27.10
2022-09-07T21:07:28.681Z,28.40
2022-09-07T21:10:00.565Z,29.38
2022-09-07T21:12:33.950Z,29.15
2022-09-07T21:15:04.124Z,29.38
2022-09-07T21:17:34.312Z,32.45
2022-09-07T21:20:05.405Z,32.85
2022-09-07T21:22:35.439Z,33.95
2022-09-07T21:25:05.644Z,34.63
2022-09-07T21:27:39.205Z,34.65
2022-09-07T21:30:10.109Z,35.90
2022-09-07T21:32:41.942Z,37.10
2022-09-07T21:35:12.646Z,36.17
2022-09-07T21:37:42.803Z,35.85
2022-09-07T21:40:12.983Z,36.85
2022-09-07T21:42:43.236Z,34.45
2022-09-07T21:45:13.730Z,33.83
2022-09-07T21:47:44.204Z,35.03
2022-09-07T21:50:15.162Z,36.67
2022-09-07T21:52:45.467Z,36.10
2022-09-07T21:55:15.885Z,35.83
2022-09-07T21:57:46.088Z,36.25
2022-09-07T22:00:17.625Z,38.50
2022-09-07T22:02:47.690Z,46.45
2022-09-07T22:05:18.449Z,39.58
2022-09-07T22:07:48.973Z,41.70
2022-09-07T22:10:18.860Z,39.58
2022-09-07T22:12:49.465Z,38.63
2022-09-07T22:15:19.650Z,41.70
2022-09-07T22:17:50.442Z,42.63
2022-09-07T22:20:20.915Z,40.90
2022-09-07T22:22:51.025Z,43.22
2022-09-07T22:25:21.344Z,41.10
2022-09-07T22:27:51.720Z,39.15
2022-09-07T22:30:22.266Z,39.30
2022-09-07T22:32:53.619Z,43.13
2022-09-07T22:35:25.032Z,43.42
2022-09-07T22:37:55.246Z,44.15
2022-09-07T22:40:25.395Z,44.25
2022-09-07T22:42:55.928Z,41.72
2022-09-07T22:45:26.149Z,40.80
2022-09-07T22:47:56.496Z,41.13
2022-09-07T22:50:27.419Z,40.08
2022-09-07T22:52:58.264Z,41.50
2022-09-07T22:55:28.688Z,40.05
2022-09-07T22:57:58.835Z,40.75
2022-09-07T23:00:29.338Z,41.20
2022-09-07T23:02:59.624Z,41.88
2022-09-07T23:05:29.620Z,42.70
2022-09-07T23:08:00.083Z,42.38
2022-09-07T23:10:31.593Z,41.83
2022-09-07T23:13:01.727Z,40.50
2022-09-07T23:15:32.237Z,39.80
2022-09-07T23:18:02.254Z,37.22
2022-09-07T23:20:32.760Z,40.33
2022-09-07T23:23:03.293Z,41.85
2022-09-07T23:25:33.403Z,45.03
2022-09-07T23:28:04.222Z,48.13
2022-09-07T23:30:34.681Z,48.78
2022-09-07T23:33:05.514Z,52.40
2022-09-07T23:35:36.226Z,48.80
2022-09-07T23:38:06.442Z,45.35
2022-09-07T23:40:36.533Z,44.63
2022-09-07T23:43:07.074Z,44.30
2022-09-07T23:45:38.189Z,44.80
2022-09-07T23:48:08.677Z,46.00
2022-09-07T23:50:39.181Z,43.85
2022-09-07T23:53:09.776Z,45.22
2022-09-07T23:55:40.354Z,48.47
2022-09-07T23:58:11.740Z,72.25
